Time;durP1;ratioP1;P1;durP2;ratioP2;P2;SDS_P1;SDS_P2;PMS_P1;PMS_P2;Temp;Humidity;BMP_temperature;BMP_pressure;BME280_temperature;BME280_humidity;BME280_pressure;Samples;Min_cycle;Max_cycle;Signal;HPM_P1;HPM_P2
2023/12/08 00:00:17;;;;;;;19.52;13.45;;;2.00;99.90;;;;;;5095304;28;20040;-79
2023/12/08 00:02:43;;;;;;;19.00;13.30;;;2.00;99.90;;;;;;5095596;28;20040;-80
2023/12/08 00:05:09;;;;;;;22.20;14.73;;;2.10;99.90;;;;;;5094007;28;20404;-80
2023/12/08 00:07:35;;;;;;;21.10;13.53;;;1.60;99.90;;;;;;5093994;28;20052;-80
2023/12/08 00:10:02;;;;;;;20.02;13.93;;;2.10;99.90;;;;;;5094766;28;20570;-80
2023/12/08 00:12:28;;;;;;;22.85;14.18;;;2.10;99.90;;;;;;5093962;28;20483;-80
2023/12/08 00:14:54;;;;;;;20.70;13.60;;;2.10;99.90;;;;;;5095148;28;20055;-80
2023/12/08 00:17:19;;;;;;;20.17;13.47;;;2.10;99.90;;;;;;5095061;28;20451;-80
2023/12/08 00:19:45;;;;;;;19.90;13.70;;;2.10;99.90;;;;;;5094987;28;20047;-81
2023/12/08 00:22:11;;;;;;;20.63;13.52;;;2.00;99.90;;;;;;5094728;28;20044;-80
2023/12/08 00:24:37;;;;;;;21.87;14.53;;;2.00;99.90;;;;;;5093247;28;20052;-80
2023/12/08 00:27:03;;;;;;;21.42;13.65;;;2.00;99.90;;;;;;5093438;28;20040;-81
2023/12/08 00:29:29;;;;;;;19.08;13.18;;;2.00;99.90;;;;;;5091277;28;20048;-80
2023/12/08 00:31:55;;;;;;;19.23;13.27;;;2.00;99.90;;;;;;5091318;28;20042;-81
2023/12/08 00:34:20;;;;;;;22.07;13.27;;;2.00;99.90;;;;;;5091585;28;20056;-80
2023/12/08 00:36:46;;;;;;;19.07;13.00;;;2.00;99.90;;;;;;5092354;28;20044;-80
2023/12/08 00:39:12;;;;;;;22.20;14.23;;;2.10;99.90;;;;;;5092511;28;20415;-80
2023/12/08 00:41:38;;;;;;;17.30;12.53;;;2.00;99.90;;;;;;5092585;28;20040;-80
2023/12/08 00:44:04;;;;;;;19.10;13.60;;;2.00;99.90;;;;;;5092928;28;20052;-80
2023/12/08 00:46:30;;;;;;;18.77;12.27;;;2.00;99.90;;;;;;5092122;28;20043;-81
2023/12/08 00:48:55;;;;;;;17.67;12.63;;;2.10;99.90;;;;;;5094421;28;20044;-80
2023/12/08 00:51:21;;;;;;;19.67;12.77;;;2.10;99.90;;;;;;5093193;28;20396;-80
2023/12/08 00:53:47;;;;;;;17.97;11.93;;;2.10;99.90;;;;;;5092980;28;20489;-80
2023/12/08 00:56:13;;;;;;;18.60;13.23;;;2.10;99.90;;;;;;5093336;28;20048;-80
2023/12/08 00:58:38;;;;;;;19.40;13.00;;;2.10;99.90;;;;;;5094056;28;20134;-80
2023/12/08 01:01:04;;;;;;;17.27;12.60;;;2.10;99.90;;;;;;5094185;28;20126;-80
2023/12/08 01:03:30;;;;;;;17.10;11.63;;;2.10;99.90;;;;;;5092846;28;20511;-80
2023/12/08 01:05:57;;;;;;;16.57;12.27;;;2.10;99.90;;;;;;5093189;28;20048;-80
2023/12/08 01:08:22;;;;;;;16.52;11.48;;;2.10;99.90;;;;;;5094236;28;20048;-79
2023/12/08 01:10:48;;;;;;;20.20;13.20;;;2.10;99.90;;;;;;5092881;28;20040;-80
2023/12/08 01:13:14;;;;;;;16.30;11.23;;;2.10;99.90;;;;;;5092825;28;20039;-79
2023/12/08 01:15:39;;;;;;;18.60;12.60;;;2.10;99.90;;;;;;5093440;28;20040;-80
2023/12/08 01:18:05;;;;;;;19.23;12.93;;;2.00;99.90;;;;;;5076146;28;20054;-80
2023/12/08 01:20:31;;;;;;;17.63;12.73;;;2.00;99.90;;;;;;5093651;28;20139;-81
2023/12/08 01:22:57;;;;;;;18.47;13.57;;;2.10;99.90;;;;;;5093986;28;20040;-81
2023/12/08 01:25:22;;;;;;;18.33;12.30;;;2.00;99.90;;;;;;5092798;28;20079;-80
2023/12/08 01:27:48;;;;;;;20.63;13.20;;;2.00;99.90;;;;;;5092622;28;20089;-80
2023/12/08 01:30:14;;;;;;;18.60;13.03;;;2.00;99.90;;;;;;5092441;28;20078;-80
2023/12/08 01:32:39;;;;;;;18.43;12.03;;;2.00;99.90;;;;;;5093529;28;20128;-80
2023/12/08 01:35:05;;;;;;;18.63;12.00;;;2.00;99.90;;;;;;5092681;28;20082;-80
2023/12/08 01:37:31;;;;;;;17.47;12.13;;;2.00;99.90;;;;;;5092543;28;20047;-81
2023/12/08 01:39:56;;;;;;;19.63;12.77;;;2.00;99.90;;;;;;5093640;28;20135;-80
2023/12/08 01:42:22;;;;;;;19.07;13.00;;;2.00;99.90;;;;;;5092435;28;20085;-80
2023/12/08 01:44:48;;;;;;;17.45;12.65;;;2.00;99.90;;;;;;5093056;28;20432;-81
2023/12/08 01:47:15;;;;;;;19.37;12.53;;;2.10;99.90;;;;;;5093503;28;20044;-80
2023/12/08 01:49:41;;;;;;;20.85;13.80;;;2.00;99.90;;;;;;5093262;28;20134;-81
2023/12/08 01:52:08;;;;;;;19.27;13.40;;;2.00;99.90;;;;;;5093426;28;20125;-81
2023/12/08 01:54:34;;;;;;;19.58;14.32;;;2.00;99.90;;;;;;5093189;28;20052;-81
2023/12/08 01:57:01;;;;;;;18.75;13.75;;;2.00;99.90;;;;;;5093420;28;20044;-81
2023/12/08 01:59:28;;;;;;;18.67;13.35;;;2.00;99.90;;;;;;5093440;28;20047;-80
2023/12/08 02:01:54;;;;;;;19.10;13.60;;;2.00;99.90;;;;;;5092019;28;20119;-81
2023/12/08 02:04:20;;;;;;;20.80;13.17;;;2.00;99.90;;;;;;5093099;28;20222;-80
2023/12/08 02:06:46;;;;;;;20.00;13.80;;;2.00;99.90;;;;;;5091909;28;20044;-81
2023/12/08 02:09:12;;;;;;;21.23;13.77;;;2.00;99.90;;;;;;5093350;28;20047;-81
2023/12/08 02:11:39;;;;;;;20.60;14.95;;;2.00;99.90;;;;;;5093150;28;20044;-81
2023/12/08 02:14:05;;;;;;;20.92;14.10;;;2.00;99.90;;;;;;5094925;28;20494;-80
2023/12/08 02:16:55;;;;;;;19.10;13.85;;;2.00;99.90;;;;;;5097378;28;20044;-80
2023/12/08 02:19:21;;;;;;;20.30;14.88;;;2.10;99.90;;;;;;5079478;28;20052;-81
2023/12/08 02:21:47;;;;;;;21.00;14.10;;;2.00;99.90;;;;;;5097064;28;20056;-81
2023/12/08 02:24:13;;;;;;;20.50;13.97;;;2.00;99.90;;;;;;5079232;28;20503;-79
2023/12/08 02:26:39;;;;;;;19.90;13.93;;;2.10;99.90;;;;;;5095487;28;20044;-81
2023/12/08 02:29:09;;;;;;;22.03;14.70;;;2.00;99.90;;;;;;5094762;28;20109;-80
2023/12/08 02:32:04;;;;;;;20.80;14.55;;;2.10;99.90;;;;;;5094091;28;20284;-81
2023/12/08 02:34:31;;;;;;;23.67;16.40;;;2.00;99.90;;;;;;5094748;28;20488;-80
2023/12/08 02:36:59;;;;;;;20.48;15.65;;;2.00;99.90;;;;;;5094944;28;20052;-80
2023/12/08 02:39:27;;;;;;;21.88;15.50;;;2.10;99.90;;;;;;5095136;28;20055;-80
2023/12/08 02:41:53;;;;;;;20.60;15.48;;;2.00;99.90;;;;;;5094769;28;20100;-80
2023/12/08 02:44:19;;;;;;;21.55;14.70;;;2.00;99.90;;;;;;5096780;28;20548;-80
2023/12/08 02:46:45;;;;;;;20.87;14.53;;;2.10;99.90;;;;;;5096676;28;20051;-81
2023/12/08 02:49:10;;;;;;;21.37;15.87;;;1.90;99.90;;;;;;5096953;28;20055;-81
2023/12/08 02:51:36;;;;;;;23.23;16.77;;;2.00;99.90;;;;;;5096702;28;20075;-81
2023/12/08 02:54:02;;;;;;;20.60;15.50;;;2.00;99.90;;;;;;5095473;28;20044;-80
2023/12/08 02:56:28;;;;;;;23.60;15.43;;;2.00;99.90;;;;;;5096628;28;20051;-81
2023/12/08 02:58:53;;;;;;;20.13;14.87;;;2.00;99.90;;;;;;5095357;28;20121;-81
2023/12/08 03:01:19;;;;;;;20.70;15.43;;;2.00;99.90;;;;;;5096509;28;20040;-80
2023/12/08 03:03:45;;;;;;;23.53;16.50;;;2.00;99.90;;;;;;5096274;28;20052;-81
2023/12/08 03:06:10;;;;;;;23.63;16.27;;;2.00;99.90;;;;;;5096515;28;20101;-80
2023/12/08 03:08:36;;;;;;;21.67;15.57;;;2.00;99.90;;;;;;5096546;28;20552;-81
2023/12/08 03:11:01;;;;;;;22.20;16.40;;;2.00;99.90;;;;;;5094692;28;20078;-81
2023/12/08 03:13:27;;;;;;;21.17;15.93;;;2.00;99.90;;;;;;5096407;28;20052;-81
2023/12/08 03:15:53;;;;;;;22.63;16.60;;;2.00;99.90;;;;;;5095700;28;20044;-80
2023/12/08 03:18:19;;;;;;;25.13;16.60;;;2.00;99.90;;;;;;5096316;28;20043;-80
2023/12/08 03:20:44;;;;;;;23.63;17.37;;;2.00;99.90;;;;;;5095127;28;20097;-81
2023/12/08 03:23:10;;;;;;;21.73;15.90;;;2.00;99.90;;;;;;5096124;28;20091;-80
2023/12/08 03:25:36;;;;;;;23.70;17.07;;;2.00;99.90;;;;;;5077325;28;20441;-80
2023/12/08 03:28:02;;;;;;;20.50;16.10;;;2.00;99.90;;;;;;5094583;28;20051;-80
2023/12/08 03:30:27;;;;;;;23.80;17.20;;;2.00;99.90;;;;;;5095065;28;20044;-81
2023/12/08 03:32:53;;;;;;;20.93;16.53;;;2.00;99.90;;;;;;5096066;28;20040;-81
2023/12/08 03:35:20;;;;;;;23.00;17.73;;;2.00;99.90;;;;;;5095865;28;20134;-80
2023/12/08 03:37:46;;;;;;;25.10;18.90;;;2.00;99.90;;;;;;5095609;28;20040;-81
2023/12/08 03:40:11;;;;;;;25.60;17.13;;;1.90;99.90;;;;;;5094765;28;20400;-81
2023/12/08 03:42:37;;;;;;;26.67;20.13;;;1.90;99.90;;;;;;5094147;28;20062;-80
2023/12/08 03:45:05;;;;;;;25.87;20.00;;;1.90;99.90;;;;;;5095497;28;20044;-79
2023/12/08 03:47:31;;;;;;;33.33;20.05;;;1.80;99.90;;;;;;5095570;28;20051;-79
2023/12/08 03:49:57;;;;;;;26.27;18.33;;;1.80;99.90;;;;;;5093433;28;20052;-78
2023/12/08 03:52:22;;;;;;;28.27;19.43;;;1.80;99.90;;;;;;5095709;28;20093;-78
2023/12/08 03:54:48;;;;;;;28.13;19.30;;;1.80;99.90;;;;;;5095384;28;20052;-80
2023/12/08 03:57:14;;;;;;;28.23;19.23;;;1.70;99.90;;;;;;5094816;28;20077;-80
2023/12/08 03:59:42;;;;;;;30.77;20.43;;;1.70;99.90;;;;;;5095535;28;20047;-80
2023/12/08 04:02:08;;;;;;;27.60;19.90;;;1.70;99.90;;;;;;5095118;28;20424;-80
2023/12/08 04:04:34;;;;;;;30.60;21.13;;;1.60;99.90;;;;;;5095304;28;20043;-79
2023/12/08 04:07:00;;;;;;;30.73;20.53;;;1.60;99.90;;;;;;5094727;28;20094;-80
2023/12/08 04:09:25;;;;;;;32.90;22.03;;;1.60;99.90;;;;;;5094520;28;20139;-79
2023/12/08 04:11:51;;;;;;;30.37;20.37;;;1.60;99.90;;;;;;5095086;28;20052;-79
2023/12/08 04:14:17;;;;;;;40.20;22.43;;;1.50;99.90;;;;;;5094127;28;20357;-79
2023/12/08 04:16:43;;;;;;;34.00;22.03;;;1.50;99.90;;;;;;5094984;28;20533;-79
2023/12/08 04:19:12;;;;;;;41.93;23.50;;;1.50;99.90;;;;;;5093898;28;20096;-80
2023/12/08 04:21:38;;;;;;;41.25;23.58;;;1.50;99.90;;;;;;5094741;28;20098;-80
2023/12/08 04:24:04;;;;;;;36.00;22.83;;;1.50;99.90;;;;;;5093679;28;20040;-81
2023/12/08 04:26:30;;;;;;;36.83;21.73;;;1.50;99.90;;;;;;5093631;28;20055;-80
2023/12/08 04:28:56;;;;;;;40.47;23.60;;;1.40;99.90;;;;;;5094928;28;20044;-80
2023/12/08 04:31:22;;;;;;;34.00;22.13;;;1.40;99.90;;;;;;5095057;28;20044;-78
2023/12/08 04:33:48;;;;;;;38.57;24.17;;;1.50;99.90;;;;;;5093718;28;20384;-80
2023/12/08 04:36:14;;;;;;;41.00;22.87;;;1.40;99.90;;;;;;5094373;28;20040;-80
2023/12/08 04:38:40;;;;;;;40.00;24.05;;;1.40;99.90;;;;;;5076916;28;20056;-80
2023/12/08 04:41:05;;;;;;;42.90;24.90;;;1.30;99.90;;;;;;5093243;28;20066;-80
2023/12/08 04:43:31;;;;;;;47.00;25.00;;;1.30;99.90;;;;;;5094630;28;20113;-80
2023/12/08 04:45:57;;;;;;;45.47;24.80;;;1.40;99.90;;;;;;5093381;28;20058;-81
2023/12/08 04:48:22;;;;;;;43.60;25.23;;;1.30;99.90;;;;;;5094447;28;20059;-81
2023/12/08 04:50:51;;;;;;;44.57;23.87;;;1.30;99.90;;;;;;5094417;28;20134;-81
2023/12/08 04:53:17;;;;;;;42.85;23.48;;;1.40;99.90;;;;;;5093940;28;20047;-80
2023/12/08 04:55:42;;;;;;;44.47;25.03;;;1.30;99.90;;;;;;5093373;28;20126;-81
2023/12/08 04:58:08;;;;;;;43.00;24.77;;;1.30;99.90;;;;;;5093786;28;20102;-80
2023/12/08 05:00:34;;;;;;;49.43;25.80;;;1.30;99.90;;;;;;5093089;28;20074;-81
2023/12/08 05:03:00;;;;;;;46.83;25.73;;;1.30;99.90;;;;;;5093906;28;20075;-81
2023/12/08 05:05:26;;;;;;;52.90;27.37;;;1.30;99.90;;;;;;5094344;28;20396;-82
2023/12/08 05:07:53;;;;;;;52.25;27.83;;;1.30;99.90;;;;;;5094118;28;20043;-81
2023/12/08 05:10:18;;;;;;;43.10;24.92;;;1.30;99.90;;;;;;5092897;28;20048;-81
2023/12/08 05:12:44;;;;;;;47.93;26.40;;;1.30;99.90;;;;;;5094046;28;20362;-79
2023/12/08 05:15:10;;;;;;;45.00;23.57;;;1.30;99.90;;;;;;5092801;28;20047;-84
2023/12/08 05:17:36;;;;;;;42.50;23.97;;;1.30;99.90;;;;;;5092995;28;20044;-80
2023/12/08 05:20:03;;;;;;;48.03;25.73;;;1.30;99.90;;;;;;5093300;28;20047;-81
2023/12/08 05:22:29;;;;;;;48.80;25.88;;;1.20;99.90;;;;;;5093824;28;20044;-81
2023/12/08 05:24:55;;;;;;;48.05;26.42;;;1.20;99.90;;;;;;5093794;28;20051;-81
2023/12/08 05:27:21;;;;;;;54.43;26.00;;;1.30;99.90;;;;;;5093538;28;20415;-79
2023/12/08 05:29:46;;;;;;;53.67;27.50;;;1.30;99.90;;;;;;5092504;28;20044;-79
2023/12/08 05:32:12;;;;;;;61.40;27.47;;;1.30;99.90;;;;;;5093504;28;20040;-80
2023/12/08 05:34:38;;;;;;;58.07;26.90;;;1.30;99.90;;;;;;5092398;28;20083;-79
2023/12/08 05:37:04;;;;;;;50.80;26.85;;;1.30;99.90;;;;;;5092493;28;20446;-80
2023/12/08 05:39:30;;;;;;;59.30;29.10;;;1.20;99.90;;;;;;5093586;28;20281;-78
2023/12/08 05:41:56;;;;;;;43.47;24.67;;;1.20;99.90;;;;;;5093379;28;20174;-79
2023/12/08 05:44:21;;;;;;;46.80;25.57;;;1.20;99.90;;;;;;5093388;28;20075;-80
2023/12/08 05:46:47;;;;;;;45.10;25.73;;;1.20;99.90;;;;;;5093675;28;20079;-79
2023/12/08 05:49:13;;;;;;;52.67;25.87;;;1.20;99.90;;;;;;5092879;28;20069;-78
2023/12/08 05:51:39;;;;;;;48.00;25.20;;;1.20;99.90;;;;;;5093923;28;20036;-78
2023/12/08 05:54:04;;;;;;;53.93;26.90;;;1.20;99.90;;;;;;5092420;28;20056;-78
2023/12/08 05:56:31;;;;;;;47.77;26.13;;;1.20;99.90;;;;;;5093428;28;20079;-79
2023/12/08 05:58:56;;;;;;;50.95;25.95;;;1.20;99.90;;;;;;5092425;28;20048;-78
2023/12/08 06:01:22;;;;;;;61.07;29.53;;;1.20;99.90;;;;;;5093055;28;20529;-77
2023/12/08 06:03:48;;;;;;;50.60;28.13;;;1.30;99.90;;;;;;5092397;28;20138;-78
2023/12/08 06:06:14;;;;;;;50.43;25.80;;;1.20;99.90;;;;;;5093071;28;20079;-79
2023/12/08 06:08:40;;;;;;;61.75;27.77;;;1.20;99.90;;;;;;5093548;28;20056;-79
2023/12/08 06:11:06;;;;;;;51.87;27.40;;;1.20;99.90;;;;;;5091990;28;20129;-78
2023/12/08 06:13:32;;;;;;;49.22;26.63;;;1.20;99.90;;;;;;5093215;28;20078;-79
2023/12/08 06:15:57;;;;;;;55.10;28.50;;;1.20;99.90;;;;;;5093269;28;20048;-79
2023/12/08 06:18:23;;;;;;;50.30;26.57;;;1.20;99.90;;;;;;5091967;28;20105;-79
2023/12/08 06:20:49;;;;;;;47.25;26.02;;;1.20;99.90;;;;;;5091937;28;20098;-78
2023/12/08 06:23:15;;;;;;;56.77;27.60;;;1.20;99.90;;;;;;5092510;28;20084;-78
2023/12/08 06:25:41;;;;;;;53.93;27.27;;;1.30;99.90;;;;;;5092099;28;20472;-78
2023/12/08 06:28:06;;;;;;;55.60;27.20;;;1.20;99.90;;;;;;5092878;28;20048;-79
2023/12/08 06:30:32;;;;;;;50.47;26.20;;;1.20;99.90;;;;;;5093071;28;20472;-78
2023/12/08 06:32:58;;;;;;;50.70;27.27;;;1.20;99.90;;;;;;5093148;28;20488;-78
2023/12/08 06:35:24;;;;;;;48.50;25.93;;;1.20;99.90;;;;;;5092582;28;20044;-79
2023/12/08 06:37:50;;;;;;;46.77;25.53;;;1.20;99.90;;;;;;5093150;28;20051;-78
2023/12/08 06:40:16;;;;;;;49.95;27.23;;;1.20;99.90;;;;;;5091609;28;20051;-78
2023/12/08 06:42:42;;;;;;;49.53;27.33;;;1.20;99.90;;;;;;5092882;28;20118;-78
2023/12/08 06:45:08;;;;;;;54.63;28.17;;;1.20;99.90;;;;;;5092759;28;20048;-79
2023/12/08 06:47:34;;;;;;;59.10;28.48;;;1.20;99.90;;;;;;5092006;28;20048;-78
2023/12/08 06:50:00;;;;;;;56.07;27.37;;;1.20;99.90;;;;;;5092950;28;20066;-78
2023/12/08 06:52:26;;;;;;;66.53;30.40;;;1.20;99.90;;;;;;5091357;28;20073;-78
2023/12/08 06:54:52;;;;;;;56.53;27.70;;;1.20;99.90;;;;;;5091594;28;20048;-78
2023/12/08 06:57:17;;;;;;;49.33;26.87;;;1.30;99.90;;;;;;5091385;28;20123;-78
2023/12/08 06:59:43;;;;;;;44.30;26.03;;;1.20;99.90;;;;;;5092755;28;20109;-79
2023/12/08 07:02:09;;;;;;;51.80;26.37;;;1.20;99.90;;;;;;5095724;28;20047;-80
2023/12/08 07:04:34;;;;;;;53.73;27.87;;;1.20;99.90;;;;;;5096679;28;20523;-79
2023/12/08 07:07:00;;;;;;;45.40;26.03;;;1.30;99.90;;;;;;5095427;28;20048;-78
2023/12/08 07:09:26;;;;;;;49.00;27.57;;;1.30;99.90;;;;;;5094938;28;20044;-79
2023/12/08 07:11:52;;;;;;;53.17;28.40;;;1.20;99.90;;;;;;5096286;28;20076;-79
2023/12/08 07:14:17;;;;;;;48.80;27.33;;;1.20;99.90;;;;;;5096298;28;20343;-79
2023/12/08 07:16:44;;;;;;;54.83;28.50;;;1.20;99.90;;;;;;5096122;28;20040;-78
2023/12/08 07:19:10;;;;;;;47.28;27.08;;;1.20;99.90;;;;;;5096186;28;20126;-78
2023/12/08 07:21:44;;;;;;;59.10;29.30;;;1.20;99.90;;;;;;5096166;28;20123;-79
2023/12/08 07:24:11;;;;;;;57.00;28.92;;;1.20;99.90;;;;;;5096153;28;20047;-79
2023/12/08 07:26:36;;;;;;;54.70;28.52;;;1.30;99.90;;;;;;5096302;28;20071;-78
2023/12/08 07:29:03;;;;;;;50.07;27.93;;;1.20;99.90;;;;;;5096094;28;20468;-79
2023/12/08 07:31:28;;;;;;;58.13;30.67;;;1.30;99.90;;;;;;5094731;28;20131;-79
2023/12/08 07:33:55;;;;;;;54.90;30.57;;;1.20;99.90;;;;;;5095913;28;20131;-79
2023/12/08 07:36:20;;;;;;;56.88;29.83;;;1.20;99.90;;;;;;5095639;28;20134;-79
2023/12/08 07:38:46;;;;;;;51.33;27.50;;;1.30;99.90;;;;;;5095147;28;20134;-79
2023/12/08 07:41:12;;;;;;;62.70;31.27;;;1.30;99.90;;;;;;5095746;28;20047;-79
2023/12/08 07:43:37;;;;;;;53.80;28.40;;;1.30;99.90;;;;;;5095866;28;20058;-79
2023/12/08 07:46:03;;;;;;;66.27;32.20;;;1.30;99.90;;;;;;5095741;28;20121;-79
2023/12/08 07:48:29;;;;;;;53.50;29.63;;;1.30;99.90;;;;;;5095487;28;20047;-79
2023/12/08 07:50:55;;;;;;;57.03;29.58;;;1.30;99.90;;;;;;5095618;28;20172;-78
2023/12/08 07:53:21;;;;;;;57.63;29.93;;;1.30;99.90;;;;;;5095346;28;20089;-79
2023/12/08 07:55:47;;;;;;;62.13;30.23;;;1.20;99.90;;;;;;5095540;28;20462;-79
2023/12/08 07:58:13;;;;;;;54.53;30.40;;;1.30;99.90;;;;;;5095655;28;20044;-79
2023/12/08 08:00:38;;;;;;;61.70;30.27;;;1.40;99.90;;;;;;5093916;28;20043;-79
2023/12/08 08:03:04;;;;;;;64.23;31.60;;;1.30;99.90;;;;;;5094950;28;20101;-79
2023/12/08 08:05:30;;;;;;;63.67;32.65;;;1.30;99.90;;;;;;5095100;28;20055;-79
2023/12/08 08:07:56;;;;;;;56.77;29.47;;;1.30;99.90;;;;;;5095534;28;20036;-79
2023/12/08 08:10:22;;;;;;;68.40;31.93;;;1.30;99.90;;;;;;5095033;28;20494;-79
2023/12/08 08:12:48;;;;;;;61.17;30.77;;;1.30;99.90;;;;;;5094888;28;20040;-78
2023/12/08 08:15:13;;;;;;;55.93;29.77;;;1.30;99.90;;;;;;5095170;28;20511;-78
2023/12/08 08:17:39;;;;;;;52.87;30.63;;;1.30;99.90;;;;;;5095135;28;20047;-79
2023/12/08 08:20:06;;;;;;;47.67;29.20;;;1.30;99.90;;;;;;5095097;28;20044;-79
2023/12/08 08:22:32;;;;;;;63.55;29.95;;;1.40;99.90;;;;;;5094668;28;20373;-79
2023/12/08 08:24:59;;;;;;;68.30;32.22;;;1.30;99.90;;;;;;5094930;28;20082;-79
2023/12/08 08:27:25;;;;;;;54.63;29.10;;;1.30;99.90;;;;;;5093786;28;20052;-79
2023/12/08 08:29:51;;;;;;;58.85;31.60;;;1.30;99.90;;;;;;5095056;28;20044;-79
2023/12/08 08:32:17;;;;;;;52.47;28.67;;;1.30;99.90;;;;;;5094764;28;20464;-78
2023/12/08 08:34:43;;;;;;;52.47;29.90;;;1.30;99.90;;;;;;5094534;28;20054;-78
2023/12/08 08:37:09;;;;;;;53.03;29.77;;;1.30;99.90;;;;;;5094859;28;20047;-78
2023/12/08 08:39:35;;;;;;;58.27;29.27;;;1.30;99.90;;;;;;5093627;28;20048;-79
2023/12/08 08:42:01;;;;;;;59.00;30.30;;;1.30;99.90;;;;;;5094187;28;20086;-79
2023/12/08 08:44:30;;;;;;;57.60;29.13;;;1.30;99.90;;;;;;5094484;28;20091;-79
2023/12/08 08:46:56;;;;;;;60.20;30.15;;;1.30;99.90;;;;;;5094731;28;20047;-80
2023/12/08 08:49:22;;;;;;;53.10;30.20;;;1.40;99.90;;;;;;5094473;28;20119;-78
2023/12/08 08:51:48;;;;;;;58.28;29.77;;;1.30;99.90;;;;;;5093785;28;20048;-79
2023/12/08 08:54:14;;;;;;;53.30;29.67;;;1.40;99.90;;;;;;5094357;28;20044;-79
2023/12/08 08:56:41;;;;;;;66.03;32.60;;;1.40;99.90;;;;;;5094420;28;20044;-79
2023/12/08 08:59:07;;;;;;;72.57;32.22;;;1.40;99.90;;;;;;5094233;28;20100;-79
2023/12/08 09:01:33;;;;;;;54.10;29.63;;;1.40;99.90;;;;;;5092933;28;20122;-87
2023/12/08 09:03:59;;;;;;;57.77;30.27;;;1.40;99.90;;;;;;5093492;28;20212;-77
2023/12/08 09:06:24;;;;;;;58.90;31.13;;;1.40;99.90;;;;;;5076249;28;20468;-78
2023/12/08 09:08:50;;;;;;;56.60;30.73;;;1.40;99.90;;;;;;5093860;28;20054;-77
2023/12/08 09:11:16;;;;;;;59.83;29.52;;;1.40;99.90;;;;;;5093845;28;20040;-78
2023/12/08 09:13:42;;;;;;;69.53;31.77;;;1.50;99.90;;;;;;5092747;28;20044;-77
2023/12/08 09:16:08;;;;;;;65.77;31.43;;;1.40;99.90;;;;;;5094116;28;20040;-76
2023/12/08 09:18:34;;;;;;;49.97;28.30;;;1.40;99.90;;;;;;5093578;28;20055;-77
2023/12/08 09:21:00;;;;;;;53.43;29.90;;;1.50;99.90;;;;;;5094035;28;20052;-77
2023/12/08 09:23:25;;;;;;;75.03;32.37;;;1.50;99.90;;;;;;5092852;28;20054;-79
2023/12/08 09:25:53;;;;;;;87.20;34.70;;;1.40;99.90;;;;;;5093599;28;20050;-76
2023/12/08 09:28:20;;;;;;;66.88;31.30;;;1.40;99.90;;;;;;5093686;28;20044;-77
2023/12/08 09:30:46;;;;;;;62.20;31.42;;;1.50;99.90;;;;;;5093494;28;20131;-77
2023/12/08 09:33:12;;;;;;;62.50;30.90;;;1.50;99.90;;;;;;5075880;28;20127;-75
2023/12/08 09:35:37;;;;;;;66.23;32.27;;;1.50;99.90;;;;;;5093519;28;20377;-76
2023/12/08 09:38:04;;;;;;;66.83;31.07;;;1.50;99.90;;;;;;5093527;28;20040;-76
2023/12/08 09:40:32;;;;;;;59.92;30.55;;;1.60;99.90;;;;;;5092057;28;20052;-77
2023/12/08 09:43:11;;;;;;;59.05;30.15;;;1.60;99.90;;;;;;5091671;28;20056;-76
2023/12/08 09:45:38;;;;;;;63.47;30.98;;;1.50;99.90;;;;;;5093400;28;20052;-75
2023/12/08 09:48:06;;;;;;;80.57;33.15;;;1.60;99.90;;;;;;5093434;28;20051;-76
2023/12/08 09:50:33;;;;;;;74.50;33.47;;;1.60;99.90;;;;;;5091938;28;20100;-77
2023/12/08 09:53:00;;;;;;;78.40;34.35;;;1.60;99.90;;;;;;5093366;28;20078;-75
2023/12/08 09:55:27;;;;;;;81.85;34.50;;;1.60;99.90;;;;;;5093519;28;20054;-75
2023/12/08 09:57:54;;;;;;;73.25;33.42;;;1.70;99.90;;;;;;5092723;28;20549;-76
2023/12/08 10:00:21;;;;;;;71.93;32.78;;;1.70;99.90;;;;;;5093264;28;20058;-75
2023/12/08 10:02:47;;;;;;;71.75;31.98;;;1.70;99.90;;;;;;5092986;28;20114;-75
2023/12/08 10:05:13;;;;;;;75.57;33.87;;;1.70;99.90;;;;;;5093228;28;20052;-76
2023/12/08 10:07:43;;;;;;;69.13;31.80;;;1.70;99.90;;;;;;5092066;28;20119;-76
2023/12/08 10:10:10;;;;;;;60.75;31.38;;;1.70;99.90;;;;;;5093250;28;20089;-75
2023/12/08 10:12:37;;;;;;;68.60;31.88;;;1.70;99.90;;;;;;5093099;28;20059;-75
2023/12/08 10:15:08;;;;;;;70.10;31.92;;;1.70;99.90;;;;;;5093234;28;20051;-79
2023/12/08 10:17:33;;;;;;;72.13;33.90;;;1.70;99.90;;;;;;5092974;28;20055;-81
2023/12/08 10:20:10;;;;;;;67.23;33.20;;;1.80;99.90;;;;;;5075403;28;20043;-78
2023/12/08 10:22:51;;;;;;;62.90;31.50;;;1.80;99.90;;;;;;5092408;28;20124;-81
2023/12/08 10:25:24;;;;;;;66.85;33.72;;;1.80;99.90;;;;;;5091131;28;20104;-79
2023/12/08 10:27:55;;;;;;;83.13;34.42;;;1.70;99.90;;;;;;5090114;28;20047;-80
2023/12/08 10:30:23;;;;;;;75.95;33.15;;;1.80;99.90;;;;;;5092761;28;20059;-80
2023/12/08 10:32:49;;;;;;;75.30;33.75;;;1.80;99.90;;;;;;5089882;28;20032;-79
2023/12/08 10:35:15;;;;;;;71.03;32.35;;;1.80;99.90;;;;;;5094558;28;20445;-80
2023/12/08 10:37:42;;;;;;;82.18;35.63;;;1.90;99.90;;;;;;5096884;28;20131;-80
2023/12/08 10:40:12;;;;;;;93.10;35.38;;;2.00;99.90;;;;;;5095897;28;20047;-79
2023/12/08 10:42:38;;;;;;;77.03;33.92;;;1.90;99.90;;;;;;5096323;28;20373;-79
2023/12/08 10:45:10;;;;;;;76.72;35.38;;;1.90;99.90;;;;;;5097158;28;20044;-80
2023/12/08 10:47:42;;;;;;;69.40;32.55;;;2.00;99.90;;;;;;5097183;28;20044;-81
2023/12/08 10:50:09;;;;;;;91.47;35.20;;;2.00;99.90;;;;;;5096419;28;20048;-79
2023/12/08 10:52:40;;;;;;;86.00;34.90;;;2.00;99.90;;;;;;5096685;28;20039;-82
2023/12/08 10:55:11;;;;;;;80.95;34.00;;;2.00;99.90;;;;;;5096792;28;20067;-81
2023/12/08 10:57:37;;;;;;;91.53;35.42;;;2.10;99.90;;;;;;5095619;28;20040;-79
2023/12/08 11:00:17;;;;;;;92.72;36.33;;;2.00;99.90;;;;;;5095564;28;20086;-79
2023/12/08 11:02:47;;;;;;;77.63;34.22;;;2.10;99.90;;;;;;5096249;28;20044;-72
2023/12/08 11:05:23;;;;;;;85.47;35.25;;;2.10;99.90;;;;;;5096534;28;20044;-76
2023/12/08 11:07:53;;;;;;;79.72;34.35;;;2.10;99.90;;;;;;5096313;28;20135;-79
2023/12/08 11:10:20;;;;;;;79.57;32.92;;;2.10;99.90;;;;;;5096427;28;20052;-77
2023/12/08 11:12:56;;;;;;;80.95;33.35;;;2.10;99.90;;;;;;5096084;28;20043;-80
2023/12/08 11:15:23;;;;;;;88.82;36.35;;;2.10;99.90;;;;;;5096442;28;20052;-79
2023/12/08 11:17:55;;;;;;;78.43;32.72;;;2.10;99.90;;;;;;5078162;28;20051;-77
2023/12/08 11:20:21;;;;;;;74.18;34.70;;;2.20;99.90;;;;;;5096112;28;20480;-77
2023/12/08 11:22:47;;;;;;;86.43;35.45;;;2.10;99.90;;;;;;5095966;28;20052;-77
2023/12/08 11:25:36;;;;;;;96.73;38.07;;;2.20;99.90;;;;;;5096114;28;20550;-75
2023/12/08 11:28:22;;;;;;;109.07;37.35;;;2.20;99.90;;;;;;5095777;28;20051;-74
2023/12/08 11:30:52;;;;;;;90.75;36.42;;;2.20;99.90;;;;;;5095763;28;20488;-74
2023/12/08 11:33:35;;;;;;;93.57;35.08;;;2.40;99.90;;;;;;5096184;28;20036;-73
2023/12/08 11:36:08;;;;;;;84.45;34.50;;;2.20;99.90;;;;;;5095965;28;20047;-76
2023/12/08 11:38:35;;;;;;;87.72;35.60;;;2.30;99.90;;;;;;5094785;28;20048;-73
2023/12/08 11:41:01;;;;;;;91.00;34.47;;;2.30;99.90;;;;;;5095531;28;20048;-74
2023/12/08 11:43:27;;;;;;;106.47;37.67;;;2.20;99.90;;;;;;5077282;28;20105;-74
2023/12/08 11:45:53;;;;;;;87.78;35.65;;;2.30;99.90;;;;;;5095016;28;20100;-74
2023/12/08 11:48:19;;;;;;;96.30;36.87;;;2.30;99.90;;;;;;5095349;28;20434;-73
2023/12/08 11:50:46;;;;;;;94.60;35.80;;;2.30;99.90;;;;;;5095420;28;20047;-75
2023/12/08 11:53:12;;;;;;;101.28;38.90;;;2.40;99.90;;;;;;5095829;28;20044;-74
2023/12/08 11:55:43;;;;;;;100.65;39.55;;;2.30;99.90;;;;;;5095523;28;20048;-73
2023/12/08 11:58:09;;;;;;;92.10;35.92;;;2.30;99.90;;;;;;5094323;28;20083;-77
2023/12/08 12:00:39;;;;;;;89.60;35.43;;;2.40;99.90;;;;;;5077571;28;20044;-76
2023/12/08 12:03:06;;;;;;;102.68;36.60;;;2.40;99.90;;;;;;5094692;28;20479;-77
2023/12/08 12:05:32;;;;;;;115.35;38.63;;;2.40;99.90;;;;;;5095305;28;20047;-77
2023/12/08 12:07:58;;;;;;;100.03;37.08;;;2.40;99.90;;;;;;5094997;28;20047;-78
2023/12/08 12:10:34;;;;;;;108.72;38.72;;;2.40;99.90;;;;;;5095247;28;20052;-75
2023/12/08 12:13:13;;;;;;;120.63;39.65;;;2.40;99.90;;;;;;5095034;28;20051;-76
2023/12/08 12:15:41;;;;;;;123.43;41.65;;;2.50;99.90;;;;;;5095193;28;20062;-75
2023/12/08 12:18:07;;;;;;;115.57;39.53;;;2.50;99.90;;;;;;5094821;28;20094;-77
2023/12/08 12:20:40;;;;;;;142.65;40.97;;;2.50;99.90;;;;;;5094292;28;20047;-79
2023/12/08 12:23:06;;;;;;;116.10;39.00;;;2.50;99.90;;;;;;5094770;28;20036;-75
2023/12/08 12:25:32;;;;;;;116.30;38.07;;;2.60;99.90;;;;;;5095004;28;20048;-74
2023/12/08 12:27:58;;;;;;;105.63;38.55;;;2.70;99.90;;;;;;5094714;28;20048;-78
2023/12/08 12:30:24;;;;;;;121.83;39.13;;;2.60;99.90;;;;;;5094837;28;20514;-76
2023/12/08 12:32:50;;;;;;;117.53;38.60;;;2.70;99.90;;;;;;5094456;28;20123;-77